createdAt,value
2018-07-13T00:00:41.551Z,98195.68
2018-07-13T00:03:09.452Z,98183.89
2018-07-13T00:05:37.387Z,98189.32
2018-07-13T00:08:05.726Z,98194.73
2018-07-13T00:10:33.707Z,98197.34
2018-07-13T00:13:01.782Z,98195.12
2018-07-13T00:15:30.338Z,98193.09
2018-07-13T00:17:58.434Z,98193.65
2018-07-13T00:20:26.468Z,98201.56
2018-07-13T00:22:54.455Z,98191.81
2018-07-13T00:25:22.404Z,98197.50
2018-07-13T00:27:50.413Z,98197.02
2018-07-13T00:30:18.318Z,98194.67
2018-07-13T00:32:46.640Z,98199.72
2018-07-13T00:35:14.634Z,98197.66
2018-07-13T00:37:42.566Z,98195.70
2018-07-13T00:40:10.798Z,98196.00
2018-07-13T00:42:38.769Z,98199.70
2018-07-13T00:45:06.717Z,98189.88
2018-07-13T00:47:34.672Z,98194.84
2018-07-13T00:50:02.727Z,98191.97
2018-07-13T00:52:30.641Z,98197.80
2018-07-13T00:54:58.602Z,98198.72
2018-07-13T00:57:26.509Z,98190.69
2018-07-13T00:59:54.429Z,98192.62
2018-07-13T01:02:22.330Z,98189.66
2018-07-13T01:04:50.322Z,98191.24
2018-07-13T01:07:18.350Z,98194.30
2018-07-13T01:09:46.334Z,98193.89
2018-07-13T01:12:14.291Z,98191.24
2018-07-13T01:14:42.502Z,98191.05
2018-07-13T01:17:10.520Z,98189.95
2018-07-13T01:19:38.455Z,98191.86
2018-07-13T01:22:06.643Z,98194.63
2018-07-13T01:24:34.594Z,98197.90
2018-07-13T01:27:02.470Z,98198.00
2018-07-13T01:29:30.442Z,98197.92
2018-07-13T01:31:58.501Z,98198.88
2018-07-13T01:34:26.549Z,98200.69
2018-07-13T01:36:54.565Z,98189.19
2018-07-13T01:39:22.542Z,98193.67
2018-07-13T01:41:50.531Z,98190.58
2018-07-13T01:44:18.525Z,98191.38
2018-07-13T01:46:46.424Z,98190.80
2018-07-13T01:49:15.089Z,98192.48
2018-07-13T01:51:43.013Z,98199.92
2018-07-13T01:54:10.932Z,98193.48
2018-07-13T01:56:39.938Z,98198.11
2018-07-13T01:59:07.970Z,98197.75
2018-07-13T02:01:35.914Z,98192.27
2018-07-13T02:04:03.855Z,98198.59
2018-07-13T02:06:31.763Z,98199.69
2018-07-13T02:08:59.710Z,98199.69
2018-07-13T02:11:27.702Z,98204.13
2018-07-13T02:13:55.677Z,98206.80
2018-07-13T02:16:23.725Z,98201.36
2018-07-13T02:18:51.642Z,98209.97
2018-07-13T02:21:19.543Z,98206.42
2018-07-13T02:23:47.469Z,98201.50
2018-07-13T02:26:15.373Z,98193.96
2018-07-13T02:28:43.326Z,98196.25
2018-07-13T02:31:11.245Z,98196.05
2018-07-13T02:33:39.258Z,98198.53
2018-07-13T02:36:07.188Z,98197.74
2018-07-13T02:38:35.408Z,98207.16
2018-07-13T02:41:03.325Z,98210.25
2018-07-13T02:43:31.588Z,98202.17
2018-07-13T02:45:59.510Z,98208.05
2018-07-13T02:48:27.459Z,98213.30
2018-07-13T02:50:55.340Z,98206.09
2018-07-13T02:53:23.285Z,98205.38
2018-07-13T02:55:51.208Z,98212.67
2018-07-13T02:58:19.174Z,98207.52
2018-07-13T03:00:47.134Z,98206.30
2018-07-13T03:03:15.146Z,98198.66
2018-07-13T03:05:43.386Z,98203.98
2018-07-13T03:08:11.323Z,98208.13
2018-07-13T03:10:39.285Z,98198.27
2018-07-13T03:13:07.245Z,98201.15
2018-07-13T03:15:35.889Z,98196.74
2018-07-13T03:18:03.812Z,98199.03
2018-07-13T03:20:31.767Z,98195.98
2018-07-13T03:22:59.722Z,98200.42
2018-07-13T03:25:27.823Z,98188.16
2018-07-13T03:27:56.761Z,98195.98
2018-07-13T03:30:24.811Z,98189.33
2018-07-13T03:32:52.814Z,98193.56
2018-07-13T03:35:20.740Z,98192.19
2018-07-13T03:37:48.622Z,98193.17
2018-07-13T03:40:16.564Z,98204.42
2018-07-13T03:42:44.545Z,98191.44
2018-07-13T03:45:12.585Z,98192.88
2018-07-13T03:47:40.606Z,98201.61
2018-07-13T03:50:08.812Z,98197.39
2018-07-13T03:52:36.769Z,98199.67
2018-07-13T03:55:05.647Z,98202.96
2018-07-13T03:57:33.706Z,98198.36
2018-07-13T04:00:01.837Z,98196.29
2018-07-13T04:02:29.860Z,98195.00
2018-07-13T04:04:57.886Z,98194.01
2018-07-13T04:07:25.840Z,98193.22
2018-07-13T04:09:53.719Z,98193.87
2018-07-13T04:12:21.666Z,98191.77
2018-07-13T04:14:49.824Z,98188.25
2018-07-13T04:17:17.813Z,98193.24
2018-07-13T04:19:45.700Z,98184.92
2018-07-13T04:22:13.702Z,98183.22
2018-07-13T04:24:41.832Z,98194.64
2018-07-13T04:27:10.064Z,98187.65
2018-07-13T04:29:38.106Z,98179.95
2018-07-13T04:32:06.263Z,98183.35
2018-07-13T04:34:34.358Z,98178.63
2018-07-13T04:37:02.368Z,98180.96
2018-07-13T04:39:30.372Z,98184.27
2018-07-13T04:41:58.302Z,98179.96
2018-07-13T04:44:26.331Z,98174.96
2018-07-13T04:46:54.490Z,98175.11
2018-07-13T04:49:22.565Z,98181.11
2018-07-13T04:51:50.902Z,98171.55
2018-07-13T04:54:19.062Z,98174.53
2018-07-13T04:56:47.204Z,98175.94
2018-07-13T04:59:15.376Z,98168.49
2018-07-13T05:01:43.517Z,98174.55
2018-07-13T05:04:12.100Z,98167.67
2018-07-13T05:06:40.891Z,98168.89
2018-07-13T05:09:09.200Z,98166.02
2018-07-13T05:11:37.254Z,98166.88
2018-07-13T05:14:05.270Z,98172.91
2018-07-13T05:16:33.490Z,98166.11
2018-07-13T05:19:01.477Z,98164.78
2018-07-13T05:21:29.643Z,98179.44
2018-07-13T05:23:58.138Z,98174.73
2018-07-13T05:26:26.742Z,98165.92
2018-07-13T05:28:54.957Z,98167.00
2018-07-13T05:31:23.118Z,98173.22
2018-07-13T05:33:51.390Z,98179.05
2018-07-13T05:36:19.479Z,98163.01
2018-07-13T05:38:47.682Z,98168.45
2018-07-13T05:41:15.930Z,98171.37
2018-07-13T05:43:44.083Z,98169.58
2018-07-13T05:46:12.646Z,98162.92
2018-07-13T05:48:41.058Z,98162.67
2018-07-13T05:51:09.135Z,98168.95
2018-07-13T05:53:37.382Z,98164.89
2018-07-13T05:56:05.987Z,98165.22
2018-07-13T05:58:34.288Z,98177.34
2018-07-13T06:01:02.441Z,98180.05
2018-07-13T06:03:30.717Z,98174.98
2018-07-13T06:05:58.986Z,98182.03
2018-07-13T06:08:28.815Z,98176.88
2018-07-13T06:10:57.210Z,98185.92
2018-07-13T06:13:25.215Z,98185.21
2018-07-13T06:15:53.156Z,98184.88
2018-07-13T06:18:21.086Z,98182.16
2018-07-13T06:20:49.087Z,98177.83
2018-07-13T06:23:16.954Z,98183.06
2018-07-13T06:25:45.107Z,98181.98
2018-07-13T06:28:13.118Z,98188.04
2018-07-13T06:30:41.078Z,98179.78
2018-07-13T06:33:09.215Z,98176.39
2018-07-13T06:35:37.243Z,98192.77
2018-07-13T06:38:05.572Z,98173.11
2018-07-13T06:40:33.631Z,98179.91
2018-07-13T06:43:01.651Z,98180.65
2018-07-13T06:45:30.539Z,98177.30
2018-07-13T06:47:58.597Z,98187.87
2018-07-13T06:50:26.740Z,98175.83
2018-07-13T06:52:55.302Z,98181.91
2018-07-13T06:55:23.393Z,98175.17
2018-07-13T06:58:02.485Z,98191.41
2018-07-13T07:01:08.530Z,98178.17
2018-07-13T07:03:41.674Z,98180.53
2018-07-13T07:06:12.529Z,98183.75
2018-07-13T07:08:49.421Z,98184.15
2018-07-13T07:11:19.451Z,98181.44
2018-07-13T07:13:47.692Z,98191.95
2018-07-13T07:16:15.710Z,98199.16
2018-07-13T07:18:43.687Z,98198.20
2018-07-13T07:21:12.356Z,98184.84
2018-07-13T07:23:40.431Z,98181.48
2018-07-13T07:26:08.521Z,98182.78
2018-07-13T07:28:36.425Z,98188.88
2018-07-13T07:31:04.553Z,98196.84
2018-07-13T07:33:32.467Z,98181.67
2018-07-13T07:36:00.895Z,98181.72
2018-07-13T07:38:30.020Z,98188.50
2018-07-13T07:40:58.589Z,98193.70
2018-07-13T07:43:26.876Z,98200.02
2018-07-13T07:45:55.223Z,98187.69
2018-07-13T07:48:23.359Z,98178.94
2018-07-13T07:50:52.186Z,98186.51
2018-07-13T07:53:21.033Z,98183.91
2018-07-13T07:55:49.102Z,98190.41
2018-07-13T07:58:18.125Z,98180.89
2018-07-13T08:00:46.457Z,98193.51
2018-07-13T08:03:15.000Z,98177.44
2018-07-13T08:05:42.967Z,98179.20
2018-07-13T08:08:10.937Z,98190.72
2018-07-13T08:10:38.931Z,98179.77
2018-07-13T08:13:07.853Z,98185.81
2018-07-13T08:15:35.926Z,98190.63
2018-07-13T08:18:03.933Z,98183.55
2018-07-13T08:20:35.477Z,98173.30
2018-07-13T08:23:08.477Z,98183.33
2018-07-13T08:25:38.145Z,98183.33
2018-07-13T08:28:07.547Z,98192.31
2018-07-13T08:30:41.297Z,98174.78
2018-07-13T08:33:11.167Z,98172.11
2018-07-13T08:35:39.279Z,98194.19
2018-07-13T08:38:08.284Z,98185.05
2018-07-13T08:40:36.447Z,98176.09
2018-07-13T08:43:04.651Z,98192.47
2018-07-13T08:45:49.416Z,98195.80
2018-07-13T08:48:17.524Z,98180.95
2018-07-13T08:50:47.612Z,98185.55
2018-07-13T08:53:16.298Z,98185.22
2018-07-13T08:55:44.531Z,98200.80
2018-07-13T08:58:13.282Z,98181.73
2018-07-13T09:00:42.202Z,98201.23
2018-07-13T09:03:10.157Z,98197.22
2018-07-13T09:05:38.633Z,98189.88
2018-07-13T09:08:06.766Z,98192.02
2018-07-13T09:10:34.992Z,98193.75
2018-07-13T09:13:03.347Z,98204.73
2018-07-13T09:15:31.604Z,98185.56
2018-07-13T09:18:00.104Z,98189.25
2018-07-13T09:20:28.255Z,98201.78
2018-07-13T09:22:56.235Z,98182.25
2018-07-13T09:25:24.273Z,98188.80
2018-07-13T09:27:53.018Z,98185.48
2018-07-13T09:30:21.160Z,98189.61
2018-07-13T09:32:49.149Z,98181.89
2018-07-13T09:35:17.828Z,98190.87
2018-07-13T09:37:45.890Z,98183.58
2018-07-13T09:40:14.094Z,98183.05
2018-07-13T09:42:48.939Z,98186.50
2018-07-13T09:45:16.975Z,98182.95
2018-07-13T09:47:45.131Z,98170.98
2018-07-13T09:50:19.992Z,98168.48
2018-07-13T09:52:48.238Z,98173.44
2018-07-13T09:55:16.366Z,98176.11
2018-07-13T09:57:44.491Z,98182.23
2018-07-13T10:00:13.270Z,98181.48
2018-07-13T10:02:41.588Z,98175.42
2018-07-13T10:05:09.931Z,98183.08
2018-07-13T10:07:39.844Z,98173.77
2018-07-13T10:10:08.856Z,98183.31
2018-07-13T10:12:38.530Z,98162.13
2018-07-13T10:15:07.097Z,98154.99
2018-07-13T10:17:35.351Z,98172.98
2018-07-13T10:20:03.637Z,98153.33
2018-07-13T10:22:32.823Z,98154.95
2018-07-13T10:25:02.927Z,98140.77
2018-07-13T10:27:34.725Z,98141.75
2018-07-13T10:30:06.636Z,98136.61
2018-07-13T10:32:36.388Z,98148.83
2018-07-13T10:35:07.513Z,98132.37
2018-07-13T10:37:35.722Z,98146.58
2018-07-13T10:40:03.768Z,98135.83
2018-07-13T10:42:32.547Z,98135.69
2018-07-13T10:45:00.599Z,98144.97
2018-07-13T10:47:28.630Z,98131.05
2018-07-13T10:49:56.590Z,98120.19
2018-07-13T10:52:24.566Z,98140.94
2018-07-13T10:54:52.519Z,98126.74
2018-07-13T10:57:20.750Z,98128.16
2018-07-13T10:59:48.751Z,98131.05
2018-07-13T11:02:16.825Z,98117.89
2018-07-13T11:04:44.743Z,98124.68
2018-07-13T11:07:12.694Z,98126.62
2018-07-13T11:09:40.670Z,98131.01
2018-07-13T11:12:08.674Z,98117.91
2018-07-13T11:14:37.842Z,98127.27
2018-07-13T11:17:05.772Z,98123.69
2018-07-13T11:19:33.714Z,98093.42
2018-07-13T11:22:01.851Z,98098.02
2018-07-13T11:24:29.791Z,98131.95
2018-07-13T11:26:57.753Z,98118.09
2018-07-13T11:29:25.816Z,98110.53
2018-07-13T11:31:53.753Z,98099.33
2018-07-13T11:34:21.664Z,98082.62
2018-07-13T11:36:49.661Z,98081.91
2018-07-13T11:39:17.598Z,98076.28
2018-07-13T11:41:45.518Z,98091.20
2018-07-13T11:44:13.512Z,98080.00
2018-07-13T11:46:42.915Z,98067.98
2018-07-13T11:49:13.592Z,98081.48
2018-07-13T11:51:41.652Z,98072.16
2018-07-13T11:54:09.585Z,98067.49
2018-07-13T11:56:37.727Z,98066.67
2018-07-13T11:59:06.869Z,98054.64
2018-07-13T12:01:36.122Z,98053.15
2018-07-13T12:04:04.476Z,98030.19
2018-07-13T12:06:32.452Z,98024.09
2018-07-13T12:09:00.913Z,98044.91
2018-07-13T12:11:28.932Z,98044.97
2018-07-13T12:13:56.911Z,98032.78
2018-07-13T12:16:25.501Z,98037.17
2018-07-13T12:18:53.444Z,98049.86
2018-07-13T12:21:21.591Z,98025.76
2018-07-13T12:23:49.572Z,98034.95
2018-07-13T12:26:17.941Z,98033.17
2018-07-13T12:28:45.885Z,98053.54
2018-07-13T12:31:14.329Z,98055.72
2018-07-13T12:33:42.290Z,98038.12
2018-07-13T12:36:10.446Z,98040.56
2018-07-13T12:38:38.616Z,98036.89
2018-07-13T12:41:06.641Z,98049.78
2018-07-13T12:43:34.648Z,98037.30
2018-07-13T12:46:02.661Z,98029.84
2018-07-13T12:48:30.597Z,98020.02
2018-07-13T12:50:58.635Z,98025.50
2018-07-13T12:53:26.623Z,98012.84
2018-07-13T12:55:54.595Z,98017.41
2018-07-13T12:58:22.521Z,98028.92
2018-07-13T13:00:50.453Z,98029.20
2018-07-13T13:03:18.480Z,98013.02
2018-07-13T13:05:46.493Z,98024.04
2018-07-13T13:08:14.404Z,98034.98
2018-07-13T13:10:44.346Z,97992.98
2018-07-13T13:13:14.000Z,98031.64
2018-07-13T13:15:42.044Z,98022.79
2018-07-13T13:18:09.982Z,98013.52
2018-07-13T13:20:37.885Z,98030.30
2018-07-13T13:23:06.272Z,98013.03
2018-07-13T13:25:34.339Z,98000.67
2018-07-13T13:28:02.265Z,98002.05
2018-07-13T13:30:31.053Z,98010.14
2018-07-13T13:32:59.392Z,97999.63
2018-07-13T13:35:27.408Z,97995.34
2018-07-13T13:37:55.328Z,98001.98
2018-07-13T13:40:23.286Z,97999.06
2018-07-13T13:42:51.223Z,97990.41
2018-07-13T13:45:19.130Z,97996.14
2018-07-13T13:47:47.092Z,97989.45
2018-07-13T13:50:15.086Z,98002.42
2018-07-13T13:52:43.083Z,98012.77
2018-07-13T13:55:11.074Z,97988.41
2018-07-13T13:57:39.044Z,97992.08
2018-07-13T14:00:06.987Z,97988.83
2018-07-13T14:02:34.915Z,97994.17
2018-07-13T14:05:02.993Z,97996.86
2018-07-13T14:07:30.983Z,97993.85
2018-07-13T14:09:58.991Z,97986.28
2018-07-13T14:12:27.000Z,97991.81
2018-07-13T14:14:54.985Z,98009.53
2018-07-13T14:17:23.002Z,97995.84
2018-07-13T14:19:50.990Z,97996.81
2018-07-13T14:22:18.918Z,98003.98
2018-07-13T14:24:46.963Z,98000.05
2018-07-13T14:27:15.003Z,98014.92
2018-07-13T14:29:44.154Z,98010.55
2018-07-13T14:32:12.465Z,98005.06
2018-07-13T14:34:40.606Z,98047.34
2018-07-13T14:37:08.651Z,98003.22
2018-07-13T14:39:36.755Z,98027.52
2018-07-13T14:42:06.865Z,98029.76
2018-07-13T14:44:35.008Z,98015.73
2018-07-13T14:47:03.342Z,98018.77
2018-07-13T14:49:31.835Z,98022.31
2018-07-13T14:51:59.817Z,98015.70
2018-07-13T14:54:39.212Z,98018.92
2018-07-13T14:57:15.309Z,98007.86
2018-07-13T14:59:47.016Z,98024.25
2018-07-13T15:02:15.179Z,98030.54
2018-07-13T15:04:43.239Z,98047.22
2018-07-13T15:07:11.669Z,98048.20
2018-07-13T15:09:39.713Z,98033.82
2018-07-13T15:12:09.080Z,98049.30
2018-07-13T15:14:37.559Z,98033.55
2018-07-13T15:17:05.751Z,98039.78
2018-07-13T15:19:33.766Z,98043.97
2018-07-13T15:22:01.834Z,98049.04
2018-07-13T15:24:29.777Z,98040.92
2018-07-13T15:26:57.980Z,98060.68
2018-07-13T15:29:25.939Z,98040.92
2018-07-13T15:31:53.947Z,98034.70
2018-07-13T15:34:22.128Z,98070.89
2018-07-13T15:36:50.206Z,98036.76
2018-07-13T15:39:22.775Z,98037.53
2018-07-13T15:41:50.906Z,98039.81
2018-07-13T15:44:19.018Z,98030.30
2018-07-13T15:46:47.085Z,98059.16
2018-07-13T15:49:15.088Z,98052.79
2018-07-13T15:51:43.119Z,98044.66
2018-07-13T15:54:11.173Z,98048.89
2018-07-13T15:56:39.335Z,98038.26
2018-07-13T15:59:07.357Z,98048.72
2018-07-13T16:01:35.471Z,98046.91
2018-07-13T16:04:03.774Z,98048.08
2018-07-13T16:06:32.698Z,98034.48
2018-07-13T16:09:00.664Z,98047.32
2018-07-13T16:11:28.691Z,98050.42
2018-07-13T16:13:56.666Z,98051.02
2018-07-13T16:16:24.648Z,98072.25
2018-07-13T16:18:52.823Z,98049.46
2018-07-13T16:21:20.930Z,98046.36
2018-07-13T16:23:49.069Z,98050.70
2018-07-13T16:26:16.973Z,98041.55
2018-07-13T16:28:45.136Z,98051.05
2018-07-13T16:31:13.090Z,98052.26
2018-07-13T16:33:41.207Z,98056.58
2018-07-13T16:36:10.407Z,98056.09
2018-07-13T16:38:39.170Z,98053.77
2018-07-13T16:41:07.264Z,98066.66
2018-07-13T16:43:35.319Z,98100.48
2018-07-13T16:46:03.495Z,98056.31
2018-07-13T16:48:31.622Z,98074.65
2018-07-13T16:50:59.734Z,98074.70
2018-07-13T16:53:28.058Z,98068.02
2018-07-13T16:55:56.167Z,98082.41
2018-07-13T16:58:24.134Z,98084.66
2018-07-13T17:00:52.256Z,98075.23
2018-07-13T17:03:20.386Z,98073.78
2018-07-13T17:05:48.429Z,98090.00
2018-07-13T17:08:16.496Z,98078.60
2018-07-13T17:10:44.617Z,98071.70
2018-07-13T17:13:12.728Z,98084.46
2018-07-13T17:15:40.999Z,98085.86
2018-07-13T17:18:09.073Z,98092.75
2018-07-13T17:20:37.360Z,98093.11
2018-07-13T17:23:05.997Z,98097.61
2018-07-13T17:25:34.052Z,98093.38
2018-07-13T17:28:02.076Z,98092.42
2018-07-13T17:30:30.077Z,98094.67
2018-07-13T17:32:58.071Z,98098.92
2018-07-13T17:35:26.097Z,98103.67
2018-07-13T17:37:54.090Z,98092.16
2018-07-13T17:40:22.021Z,98100.00
2018-07-13T17:42:50.107Z,98103.09
2018-07-13T17:45:18.513Z,98106.45
2018-07-13T17:47:46.547Z,98109.35
2018-07-13T17:50:14.609Z,98108.17
2018-07-13T17:52:42.651Z,98118.83
2018-07-13T17:55:10.649Z,98121.30
2018-07-13T17:57:38.626Z,98126.67
2018-07-13T18:00:07.465Z,98121.60
2018-07-13T18:02:35.698Z,98129.02
2018-07-13T18:05:03.879Z,98127.85
2018-07-13T18:07:31.980Z,98139.59
2018-07-13T18:10:06.797Z,98138.63
2018-07-13T18:12:34.787Z,98144.66
2018-07-13T18:15:03.153Z,98152.02
2018-07-13T18:17:31.242Z,98151.88
2018-07-13T18:19:59.291Z,98156.06
2018-07-13T18:22:27.267Z,98161.55
2018-07-13T18:24:55.305Z,98160.54
2018-07-13T18:27:23.828Z,98167.36
2018-07-13T18:29:51.818Z,98171.11
2018-07-13T18:32:19.860Z,98171.34
2018-07-13T18:34:47.915Z,98171.80
2018-07-13T18:37:15.983Z,98175.58
2018-07-13T18:39:44.092Z,98175.25
2018-07-13T18:42:12.161Z,98178.34
2018-07-13T18:44:41.172Z,98174.09
2018-07-13T18:47:09.505Z,98180.73
2018-07-13T18:49:37.495Z,98178.70
2018-07-13T18:52:06.116Z,98188.25
2018-07-13T18:54:34.265Z,98187.64
2018-07-13T18:57:02.445Z,98189.34
2018-07-13T18:59:30.594Z,98199.34
2018-07-13T19:01:58.998Z,98201.94
2018-07-13T19:04:27.173Z,98203.23
2018-07-13T19:06:55.289Z,98202.41
2018-07-13T19:09:23.327Z,98203.96
2018-07-13T19:11:51.338Z,98204.78
2018-07-13T19:14:19.257Z,98198.24
2018-07-13T19:16:47.323Z,98204.55
2018-07-13T19:19:15.573Z,98214.08
2018-07-13T19:21:43.560Z,98203.08
2018-07-13T19:24:11.585Z,98207.05
2018-07-13T19:26:39.546Z,98209.53
2018-07-13T19:29:07.582Z,98207.99
2018-07-13T19:31:35.563Z,98202.82
2018-07-13T19:34:03.580Z,98203.24
2018-07-13T19:36:31.654Z,98199.67
2018-07-13T19:38:59.624Z,98196.05
2018-07-13T19:41:27.736Z,98191.78
2018-07-13T19:43:55.796Z,98187.86
2018-07-13T19:46:23.778Z,98194.09
2018-07-13T19:48:51.818Z,98194.53
2018-07-13T19:51:19.987Z,98203.23
2018-07-13T19:53:54.304Z,98218.03
2018-07-13T19:56:23.393Z,98200.77
2018-07-13T19:58:51.897Z,98196.33
2018-07-13T20:01:19.970Z,98199.14
2018-07-13T20:03:47.932Z,98195.20
2018-07-13T20:06:15.912Z,98193.98
2018-07-13T20:08:44.020Z,98192.80
2018-07-13T20:11:12.118Z,98191.27
2018-07-13T20:13:40.329Z,98192.60
2018-07-13T20:16:08.526Z,98201.60
2018-07-13T20:18:36.514Z,98197.34
2018-07-13T20:21:04.436Z,98200.38
2018-07-13T20:23:32.798Z,98204.73
2018-07-13T20:26:00.796Z,98205.62
2018-07-13T20:28:28.837Z,98203.13
2018-07-13T20:30:56.867Z,98203.77
2018-07-13T20:33:24.926Z,98205.98
2018-07-13T20:35:52.884Z,98209.59
2018-07-13T20:38:20.966Z,98203.08
2018-07-13T20:40:49.020Z,98200.27
2018-07-13T20:43:16.950Z,98205.38
2018-07-13T20:45:45.058Z,98202.24
2018-07-13T20:48:13.058Z,98201.20
2018-07-13T20:50:41.093Z,98209.08
2018-07-13T20:53:09.171Z,98206.50
2018-07-13T20:55:37.248Z,98193.17
2018-07-13T20:58:05.238Z,98199.16
2018-07-13T21:00:33.350Z,98194.73
2018-07-13T21:03:01.622Z,98197.80
2018-07-13T21:05:29.503Z,98195.22
2018-07-13T21:07:57.536Z,98184.25
2018-07-13T21:10:26.578Z,98175.77
2018-07-13T21:12:55.331Z,98183.59
2018-07-13T21:15:23.426Z,98186.83
2018-07-13T21:17:52.916Z,98174.96
2018-07-13T21:20:21.664Z,98180.61
2018-07-13T21:22:50.341Z,98175.92
2018-07-13T21:25:19.650Z,98182.05
2018-07-13T21:27:48.714Z,98175.43
2018-07-13T21:30:17.065Z,98179.37
2018-07-13T21:32:46.347Z,98179.63
2018-07-13T21:35:16.490Z,98176.66
2018-07-13T21:37:46.817Z,98174.20
2018-07-13T21:40:15.754Z,98171.08
2018-07-13T21:42:44.382Z,98166.53
2018-07-13T21:45:13.580Z,98169.11
2018-07-13T21:47:42.393Z,98168.03
2018-07-13T21:50:11.063Z,98175.39
2018-07-13T21:52:40.752Z,98168.96
2018-07-13T21:55:09.546Z,98173.09
2018-07-13T21:57:38.311Z,98173.32
2018-07-13T22:00:06.914Z,98156.09
2018-07-13T22:02:38.068Z,98152.09
2018-07-13T22:05:07.692Z,98155.51
2018-07-13T22:07:37.136Z,98158.11
2018-07-13T22:10:05.218Z,98148.56
2018-07-13T22:12:33.206Z,98145.31
2018-07-13T22:15:01.228Z,98148.52
2018-07-13T22:17:29.226Z,98157.25
2018-07-13T22:19:57.324Z,98145.50
2018-07-13T22:22:25.725Z,98158.69
2018-07-13T22:24:53.670Z,98132.60
2018-07-13T22:27:23.715Z,98144.52
2018-07-13T22:29:51.773Z,98159.78
2018-07-13T22:32:19.760Z,98128.31
2018-07-13T22:34:47.823Z,98137.11
2018-07-13T22:37:15.860Z,98145.94
2018-07-13T22:39:43.875Z,98136.38
2018-07-13T22:42:11.936Z,98134.76
2018-07-13T22:44:40.003Z,98131.94
2018-07-13T22:47:08.018Z,98124.81
2018-07-13T22:49:36.046Z,98111.03
2018-07-13T22:52:04.180Z,98123.89
2018-07-13T22:54:32.114Z,98126.34
2018-07-13T22:57:00.263Z,98108.21
2018-07-13T22:59:28.254Z,98116.30
2018-07-13T23:01:56.395Z,98106.18
2018-07-13T23:04:24.481Z,98119.07
2018-07-13T23:06:52.492Z,98110.80
2018-07-13T23:09:20.471Z,98110.03
2018-07-13T23:11:48.528Z,98097.59
2018-07-13T23:14:16.548Z,98101.48
2018-07-13T23:16:44.536Z,98087.27
2018-07-13T23:19:12.591Z,98095.63
2018-07-13T23:21:40.679Z,98099.09
2018-07-13T23:24:08.970Z,98102.50
2018-07-13T23:26:37.143Z,98098.89
2018-07-13T23:29:05.196Z,98096.73
2018-07-13T23:31:33.322Z,98086.91
2018-07-13T23:34:01.327Z,98094.67
2018-07-13T23:36:29.259Z,98092.72
2018-07-13T23:38:57.184Z,98095.25
2018-07-13T23:41:25.169Z,98092.05
2018-07-13T23:43:53.596Z,98088.06
2018-07-13T23:46:21.621Z,98087.45
2018-07-13T23:48:49.535Z,98087.77
2018-07-13T23:51:17.491Z,98092.79
2018-07-13T23:53:45.415Z,98098.21
2018-07-13T23:56:13.456Z,98078.39
2018-07-13T23:58:41.449Z,98091.48
